createdAt,value
2023-05-12T00:03:41.710Z,3.62
2023-05-12T00:09:03.750Z,3.50
2023-05-12T00:14:25.838Z,3.53
2023-05-12T00:19:48.906Z,3.39
2023-05-12T00:25:11.901Z,3.17
2023-05-12T00:30:34.607Z,2.99
2023-05-12T00:35:57.653Z,3.10
2023-05-12T00:41:20.086Z,3.12
2023-05-12T00:46:42.965Z,3.10
2023-05-12T00:52:07.482Z,3.09
2023-05-12T00:57:30.443Z,2.98
2023-05-12T01:02:53.600Z,2.89
2023-05-12T01:08:18.187Z,2.92
2023-05-12T01:13:41.908Z,2.81
2023-05-12T01:19:08.465Z,2.81
2023-05-12T01:24:33.167Z,2.83
2023-05-12T01:29:58.607Z,2.91
2023-05-12T01:35:20.937Z,2.69
2023-05-12T01:40:51.711Z,2.63
2023-05-12T01:46:14.442Z,2.77
2023-05-12T01:51:37.786Z,2.93
2023-05-12T01:57:00.138Z,3.13
2023-05-12T02:02:22.633Z,3.09
2023-05-12T02:07:44.996Z,3.27
2023-05-12T02:13:08.224Z,3.46
2023-05-12T02:18:30.767Z,3.66
2023-05-12T02:24:14.933Z,3.84
2023-05-12T02:29:38.732Z,4.04
2023-05-12T02:35:01.748Z,4.11
2023-05-12T02:40:25.421Z,4.28
2023-05-12T02:45:47.593Z,4.57
2023-05-12T02:51:09.818Z,4.91
2023-05-12T02:56:33.803Z,5.17
2023-05-12T03:01:55.941Z,5.59
2023-05-12T03:07:17.835Z,6.01
2023-05-12T03:12:39.741Z,6.53
2023-05-12T03:18:02.110Z,7.14
2023-05-12T03:23:25.217Z,8.67
2023-05-12T03:28:47.706Z,9.99
2023-05-12T03:34:10.051Z,10.89
2023-05-12T03:39:33.121Z,11.68
2023-05-12T03:44:55.926Z,13.66
2023-05-12T03:50:18.694Z,13.42
2023-05-12T03:55:42.048Z,13.74
2023-05-12T04:01:05.402Z,14.30
2023-05-12T04:06:28.072Z,15.22
2023-05-12T04:11:50.559Z,16.41
2023-05-12T04:17:12.542Z,19.33
2023-05-12T04:22:34.715Z,21.84
2023-05-12T04:27:57.040Z,23.98
2023-05-12T04:33:19.697Z,23.67
2023-05-12T04:38:42.550Z,24.40
2023-05-12T04:44:05.121Z,28.52
2023-05-12T04:49:28.250Z,26.44
2023-05-12T04:54:50.478Z,25.42
2023-05-12T05:00:13.377Z,24.80
2023-05-12T05:05:35.433Z,26.01
2023-05-12T05:10:57.577Z,27.52
2023-05-12T05:16:21.407Z,23.15
2023-05-12T05:21:44.333Z,22.98
2023-05-12T05:27:06.678Z,24.58
2023-05-12T05:32:28.695Z,24.67
2023-05-12T05:37:54.146Z,25.97
2023-05-12T05:43:16.367Z,25.88
2023-05-12T05:48:38.413Z,23.59
2023-05-12T05:54:02.595Z,22.97
2023-05-12T05:59:25.367Z,23.65
2023-05-12T06:04:50.123Z,23.18
2023-05-12T06:10:13.103Z,22.24
2023-05-12T06:26:04.729Z,22.03
2023-05-12T06:31:27.049Z,23.12
2023-05-12T06:36:49.458Z,23.57
2023-05-12T06:42:12.025Z,23.17
2023-05-12T06:47:36.799Z,24.55
2023-05-12T06:52:59.110Z,22.82
2023-05-12T06:58:22.566Z,23.78
2023-05-12T07:03:44.747Z,24.08
2023-05-12T07:09:06.779Z,24.15
2023-05-12T07:14:29.179Z,25.22
2023-05-12T07:19:53.553Z,26.91
2023-05-12T07:25:16.663Z,23.91
2023-05-12T07:30:39.875Z,23.02
2023-05-12T07:36:02.505Z,22.06
2023-05-12T07:41:25.143Z,22.03
2023-05-12T07:46:47.430Z,22.57
2023-05-12T07:52:10.220Z,22.19
2023-05-12T07:57:32.129Z,22.22
2023-05-12T08:02:54.853Z,22.52
2023-05-12T08:08:17.578Z,21.94
2023-05-12T08:13:40.213Z,22.91
2023-05-12T08:19:02.654Z,22.90
2023-05-12T08:24:24.609Z,22.58
2023-05-12T08:29:46.558Z,23.45
2023-05-12T08:35:10.399Z,22.68
2023-05-12T08:40:38.840Z,23.06
2023-05-12T08:46:03.206Z,22.19
2023-05-12T08:51:26.459Z,22.57
2023-05-12T09:02:15.195Z,23.16
2023-05-12T09:07:44.097Z,23.92
2023-05-12T09:13:15.381Z,23.99
2023-05-12T09:18:56.995Z,23.39
2023-05-12T09:24:19.760Z,23.05
2023-05-12T09:29:59.359Z,23.11
2023-05-12T09:35:22.660Z,23.53
2023-05-12T09:40:46.358Z,24.12
2023-05-12T09:46:08.521Z,24.30
2023-05-12T09:51:31.953Z,23.92
2023-05-12T09:56:59.207Z,23.10
2023-05-12T10:02:25.237Z,22.81
2023-05-12T10:07:54.097Z,22.95
2023-05-12T10:13:16.831Z,22.67
2023-05-12T10:18:43.507Z,22.20
2023-05-12T10:24:10.281Z,22.24
2023-05-12T10:29:33.592Z,22.39
2023-05-12T10:34:56.244Z,22.98
2023-05-12T10:40:27.518Z,21.83
2023-05-12T10:46:11.109Z,21.65
2023-05-12T10:51:51.681Z,21.69
2023-05-12T10:57:21.942Z,21.62
2023-05-12T11:02:52.981Z,21.61
2023-05-12T11:08:17.665Z,21.26
2023-05-12T11:13:47.391Z,20.97
2023-05-12T11:19:09.252Z,21.14
2023-05-12T11:24:31.504Z,21.63
2023-05-12T11:29:58.992Z,21.94
2023-05-12T11:35:21.601Z,21.57
2023-05-12T11:40:44.284Z,22.03
2023-05-12T11:46:06.500Z,22.09
2023-05-12T11:51:28.459Z,22.31
2023-05-12T11:56:54.982Z,22.05
2023-05-12T12:02:22.820Z,22.00
2023-05-12T12:07:45.303Z,22.65
2023-05-12T12:13:07.441Z,22.52
2023-05-12T12:18:29.007Z,22.44
2023-05-12T12:23:52.078Z,21.53
2023-05-12T12:29:14.404Z,21.84
2023-05-12T12:34:36.116Z,21.82
2023-05-12T12:39:58.561Z,22.17
2023-05-12T12:45:20.566Z,22.06
2023-05-12T12:50:42.897Z,22.03
2023-05-12T12:56:05.615Z,21.82
2023-05-12T13:01:27.817Z,21.65
2023-05-12T13:06:50.314Z,21.40
2023-05-12T13:12:12.186Z,20.98
2023-05-12T13:17:34.306Z,21.05
2023-05-12T13:22:56.765Z,20.95
2023-05-12T13:28:18.862Z,20.87
2023-05-12T13:33:40.718Z,20.88
2023-05-12T13:39:04.214Z,20.88
2023-05-12T13:44:26.220Z,21.20
2023-05-12T13:49:48.338Z,20.89
2023-05-12T13:55:14.605Z,21.10
2023-05-12T14:00:43.056Z,21.09
2023-05-12T14:06:05.986Z,21.27
2023-05-12T14:11:27.877Z,21.14
2023-05-12T14:16:50.456Z,21.02
2023-05-12T14:22:25.091Z,20.75
2023-05-12T14:27:49.314Z,20.79
2023-05-12T14:33:11.526Z,20.56
2023-05-12T14:38:33.846Z,20.57
2023-05-12T14:43:56.308Z,20.60
2023-05-12T14:49:21.737Z,20.64
2023-05-12T14:54:43.628Z,20.51
2023-05-12T15:00:08.709Z,20.82
2023-05-12T15:05:52.742Z,20.78
2023-05-12T15:11:14.937Z,20.57
2023-05-12T15:16:36.984Z,19.85
2023-05-12T15:21:59.019Z,19.68
2023-05-12T15:27:20.943Z,19.55
2023-05-12T15:32:43.123Z,19.50
2023-05-12T15:38:05.249Z,19.62
2023-05-12T15:43:27.304Z,19.59
2023-05-12T15:48:51.435Z,19.38
2023-05-12T15:54:13.315Z,19.30
2023-05-12T15:59:35.546Z,19.18
2023-05-12T16:04:58.365Z,19.14
2023-05-12T16:10:20.449Z,18.99
2023-05-12T16:15:42.660Z,18.71
2023-05-12T16:21:05.732Z,18.65
2023-05-12T16:26:27.485Z,18.42
2023-05-12T16:31:49.183Z,18.19
2023-05-12T16:37:11.538Z,17.90
2023-05-12T16:42:33.854Z,17.63
2023-05-12T16:47:56.082Z,17.38
2023-05-12T16:53:18.118Z,17.19
2023-05-12T16:58:40.617Z,16.87
2023-05-12T17:04:02.767Z,16.58
2023-05-12T17:09:24.787Z,16.24
2023-05-12T17:14:59.356Z,15.89
2023-05-12T17:20:28.475Z,15.56
2023-05-12T17:25:50.591Z,15.15
2023-05-12T17:31:12.339Z,14.71
2023-05-12T17:36:34.671Z,14.34
2023-05-12T17:41:57.240Z,13.92
2023-05-12T17:47:22.313Z,13.53
2023-05-12T17:52:44.705Z,13.07
2023-05-12T17:58:06.852Z,12.89
2023-05-12T18:03:29.270Z,12.59
2023-05-12T18:08:51.546Z,12.38
2023-05-12T18:14:14.742Z,12.13
2023-05-12T18:19:36.482Z,11.83
2023-05-12T18:24:58.542Z,11.71
2023-05-12T18:30:20.715Z,11.59
2023-05-12T18:35:42.763Z,11.33
2023-05-12T18:41:04.630Z,11.28
2023-05-12T18:46:26.637Z,10.83
2023-05-12T18:51:48.439Z,10.62
2023-05-12T18:57:10.635Z,10.49
2023-05-12T19:02:32.891Z,10.34
2023-05-12T19:07:55.348Z,10.10
2023-05-12T19:13:17.220Z,9.91
2023-05-12T19:18:39.606Z,9.77
2023-05-12T19:24:02.093Z,9.58
2023-05-12T19:29:24.274Z,9.44
2023-05-12T19:34:46.742Z,9.24
2023-05-12T19:40:09.233Z,9.14
2023-05-12T19:45:31.333Z,8.93
2023-05-12T19:50:54.782Z,8.76
2023-05-12T19:56:16.679Z,8.65
2023-05-12T20:01:38.990Z,8.51
2023-05-12T20:07:01.825Z,8.27
2023-05-12T20:12:24.269Z,8.15
2023-05-12T20:17:46.646Z,8.05
2023-05-12T20:23:09.059Z,7.90
2023-05-12T20:28:30.979Z,7.75
2023-05-12T20:33:54.064Z,7.53
2023-05-12T20:39:16.397Z,7.38
2023-05-12T20:44:38.383Z,7.31
2023-05-12T20:50:05.979Z,7.17
2023-05-12T20:55:28.398Z,7.01
2023-05-12T21:00:50.358Z,6.82
2023-05-12T21:06:15.307Z,6.80
2023-05-12T21:11:37.399Z,6.67
2023-05-12T21:16:59.384Z,6.55
2023-05-12T21:22:21.823Z,6.44
2023-05-12T21:27:44.138Z,6.43
2023-05-12T21:33:06.399Z,6.29
2023-05-12T21:38:28.901Z,6.22
2023-05-12T21:43:51.016Z,6.23
2023-05-12T21:49:13.173Z,6.07
2023-05-12T21:54:35.483Z,6.03
2023-05-12T21:59:59.562Z,5.92
2023-05-12T22:05:21.681Z,5.80
2023-05-12T22:10:43.549Z,5.72
2023-05-12T22:16:05.696Z,5.70
2023-05-12T22:21:27.905Z,5.53
2023-05-12T22:26:49.458Z,5.50
2023-05-12T22:32:11.511Z,5.43
2023-05-12T22:37:33.565Z,5.26
2023-05-12T22:42:56.118Z,5.22
2023-05-12T22:48:21.429Z,5.05
2023-05-12T22:53:43.270Z,4.94
2023-05-12T22:59:05.368Z,4.97
2023-05-12T23:04:27.464Z,4.99
2023-05-12T23:09:49.297Z,4.79
2023-05-12T23:15:11.745Z,4.75
2023-05-12T23:20:33.621Z,4.67
2023-05-12T23:25:55.564Z,4.63
2023-05-12T23:31:17.896Z,4.60
2023-05-12T23:36:40.436Z,4.50
2023-05-12T23:42:03.162Z,4.49
2023-05-12T23:47:25.378Z,4.30
2023-05-12T23:52:47.655Z,4.36
2023-05-12T23:58:11.345Z,4.21
